ADDS METAR Data INFO
IDs: Format: Raw Decoded Include TAF

Data at: 1040 UTC 16 Jul 2018

KLZU 161029Z AUTO 00000KT 1/2SM FG OVC003 23/23 A3006 RMK AO2
KLZU 161023Z AUTO 00000KT 1SM BR OVC003 23/23 A3006 RMK AO2
KLZU 160956Z AUTO 00000KT 2 1/2SM BR OVC003 23/23 A3006 RMK AO2 SLP179 T02280228
KLZU 160941Z AUTO 00000KT 3SM BR OVC003 23/23 A3006 RMK AO2
KLZU 160930Z AUTO 15003KT 2SM BR OVC003 23/23 A3006 RMK AO2
KLZU 160921Z AUTO 00000KT 1SM BR OVC003 23/23 A3006 RMK AO2
KLZU 160911Z AUTO 11003KT 1 3/4SM BR OVC003 23/23 A3005 RMK AO2
KLZU 160856Z AUTO 07003KT 6SM BR OVC003 23/23 A3004 RMK AO2 SLP173 T02280228 55007
KLZU 160846Z AUTO 00000KT 7SM BKN003 23/23 A3004 RMK AO2
KLZU 160838Z AUTO 10003KT 8SM SCT003 23/23 A3004 RMK AO2
KLZU 160756Z AUTO 00000KT 10SM CLR 23/22 A3003 RMK AO2 SLP167 T02330222
KLZU 160656Z AUTO 00000KT 10SM CLR 23/22 A3004 RMK AO2 SLP171 T02330222
KLZU 160556Z AUTO 27004KT 10SM FEW028 24/23 A3007 RMK AO2 SLP180 T02440228 10278 20233 58005
KLZU 160529Z AUTO 00000KT 10SM SCT024 24/23 A3007 RMK AO2
KLZU 160520Z AUTO 00000KT 10SM FEW014 BKN024 24/23 A3007 RMK AO2
KLZU 160456Z AUTO 00000KT 10SM CLR 24/23 A3007 RMK AO2 LTG DSNT W SLP183 T02390233 403110217
KLZU 160442Z AUTO 00000KT 10SM SCT019 24/23 A3008 RMK AO2 LTG DSNT W AND NW
KLZU 160424Z AUTO 00000KT 10SM BKN019 24/23 A3008 RMK AO2 LTG DSNT SW
KLZU 160417Z AUTO 00000KT 10SM SCT019 24/23 A3008 RMK AO2 LTG DSNT SW-NW
KLZU 160356Z AUTO 00000KT 10SM BKN021 24/23 A3008 RMK AO2 LTG DSNT W SLP187 T02440233
KLZU 160348Z AUTO 00000KT 10SM FEW015 BKN021 24/23 A3008 RMK AO2
KLZU 160256Z AUTO 00000KT 10SM CLR 26/23 A3008 RMK AO2 SLP185 T02560233 53015
KLZU 160156Z AUTO 15004KT 10SM CLR 26/23 A3006 RMK AO2 LTG DSNT W SLP180 T02610233
KLZU 160056Z AUTO 12005KT 10SM FEW120 27/23 A3005 RMK AO2 SLP174 T02670233
KLZU 152356Z 11006KT 8SM FEW110 28/23 A3003 RMK AO2 SLP170 T02780233 10311 20278 55000
KLZU 152256Z 12006KT 10SM FEW030 29/23 A3003 RMK AO2 SLP168 T02940233
KLZU 152156Z 11005KT 10SM SCT028 30/23 A3003 RMK AO2 SLP168 T03000233
KLZU 152056Z 14005KT 10SM SCT030 SCT038 31/23 A3004 RMK AO2 SLP170 T03060233 56021
KLZU 151956Z 12007KT 10SM BKN030 31/23 A3005 RMK AO2 SLP173 T03060228
KLZU 151949Z 10005KT 10SM BKN030 30/23 A3005 RMK AO2
KLZU 151912Z 09006KT 10SM BKN027 30/23 A3007 RMK AO2
KLZU 151856Z 00000KT 10SM CLR 30/22 A3007 RMK AO2 SLP182 T03000222
KLZU 151756Z 07006KT 10SM SCT025 28/22 A3010 RMK AO2 SLP191 T02830222 10294 20228 58008
KLZU 151656Z VRB05KT 10SM BKN033 29/23 A3012 RMK AO2 SLP198 T02890228
KLZU 151504Z VRB04KT 10SM OVC009 26/23 A3012 RMK AO2
KLZU 151456Z VRB03KT 10SM SCT014 OVC021 26/23 A3012 RMK AO2 SLP201 T02610228 58000
KLZU 151356Z 00000KT 10SM OVC009 25/22 A3012 RMK AO2 SLP201 T02500222
KLZU 151256Z 00000KT 10SM OVC007 24/22 A3013 RMK AO2 SLP203 T02390222
KLZU 151156Z 09003KT 6SM BR OVC007 23/22 A3012 RMK AO2 SLP201 7//// T02280217 10239 20217 50008
KLZU 151056Z 00000KT 6SM BR CLR 22/22 A3011 RMK AO2 SLP195 T02170217
KLZU 150956Z AUTO 00000KT 8SM FEW120 22/22 A3010 RMK AO2 SLP192 T02170217
KLZU 150856Z AUTO 00000KT 10SM FEW037 22/21 A3009 RMK AO2 SLP191 T02220211 55005
KLZU 150756Z AUTO 09003KT 10SM SCT060 23/22 A3009 RMK AO2 SLP189 T02280217
KLZU 150656Z AUTO 05004KT 10SM OVC055 23/22 A3010 RMK AO2 SLP190 T02330217
KLZU 150556Z AUTO 00000KT 10SM OVC034 23/22 A3011 RMK AO2 SLP195 T02330222 10261 20233 55010
KLZU 150456Z AUTO 04005KT 10SM CLR 23/22 A3010 RMK AO2 SLP194 T02330222 402940233
KLZU 150356Z AUTO 06003KT 10SM CLR 24/23 A3012 RMK AO2 SLP201 T02390228
KLZU 150256Z AUTO 00000KT 8SM SCT042 23/23 A3014 RMK AO2 SLP208 T02330228 51012
KLZU 150056Z AUTO 00000KT 8SM CLR 25/23 A3012 RMK AO2 SLP201 T02500228
KLZU 142356Z 10005KT 10SM BKN110 26/23 A3010 RMK AO2 SLP194 6//// T02610228 10294 20261 56005
KLZU 142256Z 07006KT 10SM CLR 27/23 A3011 RMK AO2 SLP197 T02720228